Latest Weather Observations for Archerfield

IDQ60801

Issued at 10:32 pm EST Tuesday 3 May 2016 (issued every 30 minutes, with the page automatically refreshed every 10 minutes)

About weather observations | Map of weather stations | Latest weather observations for QLD | Other Formats
Station Details ID: 040211 Name: ARCHERFIELD AIRPORT Lat: -27.57 Lon: 153.01 Height: 12.5 m
Data from the previous 72 hours. | See also: Recent months at Archerfield
Date/Time
EST
Temp
°C
App
Temp
°C
Dew
Point
Rel
Hum
%
Delta-T
°C
Wind Press
QNH
hPa
Press
MSL
hPa
Rain
since 9 am
mm
Dir
 
Spd
km/h
Gust
km/h
Spd
kts
Gust
kts
03/10:30pm 20.7 21.4 15.5 72 3.1 ENE 6 7 3 4 1013.4 1013.3 0.0
03/10:00pm 20.5 20.5 15.3 72 3.1 W 9 13 5 7 1013.6 1013.5 0.0
03/09:30pm 21.1 21.1 15.2 69 3.5 W 9 11 5 6 1013.6 1013.5 0.0
03/09:00pm 21.8 21.7 14.9 65 4.1 WSW 9 11 5 6 1013.6 1013.5 0.0
03/08:30pm 21.8 21.5 15.4 67 3.8 W 11 13 6 7 1013.6 1013.5 0.0
03/08:00pm 20.6 20.4 15.6 73 3.0 W 11 13 6 7 1013.2 1013.1 0.0
03/07:30pm 22.0 22.3 16.1 69 3.6 W 9 11 5 6 1013.0 1012.9 0.0
03/07:00pm 23.4 24.9 14.7 58 5.2 CALM 0 0 0 0 1012.6 1012.5 0.0
03/06:30pm 22.7 22.8 14.5 60 4.8 NNW 7 9 4 5 1012.1 1012.0 0.0
03/06:00pm 24.5 24.7 14.3 53 6.0 W 6 7 3 4 1011.6 1011.5 0.0
03/05:30pm 24.1 23.7 14.2 54 5.8 WNW 9 11 5 6 1011.2 1011.1 0.0
03/05:00pm 25.7 24.5 15.1 52 6.4 W 15 20 8 11 1010.7 1010.6 0.0
03/04:30pm 27.4 25.8 15.1 47 7.5 W 17 24 9 13 1010.6 1010.5 0.0
03/04:00pm 28.5 26.6 15.8 46 7.8 WNW 20 26 11 14 1010.3 1010.2 0.0
03/03:30pm 28.6 26.5 15.2 44 8.2 W 20 28 11 15 1010.2 1010.1 0.0
03/03:00pm 28.9 26.8 15.1 43 8.4 W 20 30 11 16 1010.2 1010.1 0.0
03/02:30pm 28.9 26.9 15.4 44 8.3 WSW 20 30 11 16 1010.2 1010.1 0.0
03/02:00pm 28.6 27.4 16.2 47 7.7 WSW 17 24 9 13 1010.4 1010.3 0.0
03/01:30pm 28.5 27.5 16.7 48 7.4 W 17 26 9 14 1010.6 1010.5 0.0
03/01:00pm 28.1 27.6 17.0 51 7.0 W 15 20 8 11 1011.0 1010.9 0.0
03/12:30pm 26.9 26.6 17.4 56 6.0 WSW 15 24 8 13 1011.5 1011.4 0.0
03/12:00pm 26.2 25.9 17.3 58 5.6 W 15 22 8 12 1012.1 1012.0 0.0
03/11:30am 25.8 24.7 17.7 61 5.1 WNW 20 28 11 15 1012.8 1012.7 0.0
03/11:00am 24.2 23.7 17.7 67 4.1 WSW 17 22 9 12 1013.2 1013.1 0.0
03/10:30am 24.8 24.1 18.3 67 4.1 W 19 24 10 13 1013.9 1013.8 0.0
03/10:00am 23.4 22.3 17.8 71 3.5 WSW 20 26 11 14 1014.2 1014.1 0.0
03/09:30am 22.8 23.1 18.8 78 2.5 WSW 15 20 8 11 1014.4 1014.3 0.0
03/09:00am 22.0 21.7 18.2 79 2.4 W 17 22 9 12 1014.7 1014.6 7.6
03/08:30am 20.8 21.8 18.7 88 1.3 WSW 11 13 6 7 1014.8 1014.7 7.6
03/08:00am 20.1 21.1 18.6 91 0.9 W 11 17 6 9 1014.8 1014.7 7.6
03/07:30am 19.6 20.5 18.3 92 0.8 W 11 15 6 8 1014.8 1014.7 7.6
03/07:00am 19.4 20.5 18.1 92 0.8 WSW 9 17 5 9 1014.5 1014.4 7.6
03/06:30am 19.2 20.3 17.9 92 0.8 WSW 9 13 5 7 1014.4 1014.3 7.6
03/06:00am 19.2 20.7 18.0 93 0.7 SW 7 9 4 5 1014.2 1014.1 7.6
03/05:30am 19.4 20.6 18.2 93 0.7 WNW 9 11 5 6 1013.9 1013.8 7.6
03/05:00am 19.6 21.4 18.3 92 0.8 SW 6 9 3 5 1013.6 1013.5 7.6
03/04:30am 19.4 20.5 18.1 92 0.8 SSW 9 11 5 6 1013.4 1013.3 7.6
03/04:00am 19.7 21.1 18.7 94 0.6 SW 9 13 5 7 1013.4 1013.3 7.6
03/03:30am 19.8 21.3 18.8 94 0.6 SW 9 13 5 7 1013.5 1013.4 7.6
03/03:00am 20.0 21.8 18.8 93 0.8 S 7 13 4 7 1013.7 1013.6 7.6
03/02:30am 20.0 21.8 18.8 93 0.8 SSW 7 9 4 5 1013.5 1013.4 7.6
03/02:00am 20.4 22.0 19.1 92 0.8 SSE 9 13 5 7 1014.2 1014.1 7.6
03/01:34am 20.9 23.2 19.9 94 0.6 SE 7 11 4 6 1014.2 1014.1 7.6
03/01:30am 21.0 23.6 20.0 94 0.6 ESE 6 9 3 5 1014.3 1014.2 7.6
03/01:00am 21.1 24.9 20.1 94 0.6 CALM 0 7 0 4 1014.6 1014.5 7.6
03/12:46am 21.3 25.2 20.3 94 0.6 CALM 0 0 0 0 1014.8 1014.7 7.6
03/12:31am 21.3 24.4 20.3 94 0.6 WSW 4 11 2 6 1015.2 1015.1 7.6
03/12:30am 21.3 24.4 20.3 94 0.6 WSW 4 11 2 6 1015.3 1015.2 7.6
03/12:13am 21.4 22.9 20.6 95 0.5 WNW 13 15 7 8 1015.3 1015.2 6.8
03/12:08am 21.4 23.3 20.6 95 0.5 W 11 15 6 8 1015.6 1015.5 4.6
03/12:00am 21.3 23.8 20.3 94 0.6 WSW 7 11 4 6 1015.4 1015.3 3.2
 
Date/Time
EST
Temp
°C
App
Temp
°C
Dew
Point
Rel
Hum
%
Delta-T
°C
Wind Press
QNH
hPa
Press
MSL
hPa
Rain
since 9 am
mm
Dir
 
Spd
km/h
Gust
km/h
Spd
kts
Gust
kts
02/11:30pm 21.5 24.3 20.5 94 0.6 SSW 6 7 3 4 1014.9 1014.8 1.0
02/11:00pm 21.6 24.8 20.4 93 0.8 SSE 4 7 2 4 1014.9 1014.8 0.8
02/10:30pm 21.7 25.7 20.5 93 0.8 CALM 0 0 0 0 1015.7 1015.6 0.8
02/10:00pm 21.5 24.9 20.1 92 0.9 NNW 2 6 1 3 1016.1 1016.0 0.8
02/09:30pm 21.7 25.4 20.0 90 1.1 CALM 0 0 0 0 1015.7 1015.6 0.8
02/09:00pm 22.2 26.0 20.1 88 1.3 CALM 0 0 0 0 1015.8 1015.7 0.8
02/08:30pm 22.5 24.8 19.9 85 1.7 SE 7 9 4 5 1016.1 1016.0 0.0
02/08:00pm 22.5 24.8 19.9 85 1.7 ESE 7 9 4 5 1015.6 1015.5 0.0
02/07:30pm 22.3 24.6 19.8 86 1.6 ENE 7 9 4 5 1015.3 1015.2 0.0
02/07:00pm 22.6 24.5 19.8 84 1.8 ENE 9 13 5 7 1015.3 1015.2 0.0
02/06:30pm 22.4 24.1 19.4 83 1.9 NE 9 11 5 6 1015.4 1015.3 0.0
02/06:00pm 23.5 24.9 19.6 79 2.5 E 11 13 6 7 1015.1 1015.0 0.0
02/05:30pm 23.9 25.3 19.6 77 2.8 ENE 11 15 6 8 1014.7 1014.6 0.0
02/05:00pm 24.3 25.9 19.1 73 3.3 ENE 9 15 5 8 1014.3 1014.2 0.0
02/04:30pm 25.0 25.7 18.9 69 3.9 ENE 13 15 7 8 1013.9 1013.8 0.0
02/04:00pm 25.4 26.0 18.6 66 4.3 E 13 17 7 9 1013.4 1013.3 0.0
02/03:30pm 25.9 25.8 18.8 65 4.5 ENE 17 20 9 11 1013.3 1013.2 0.0
02/03:00pm 25.9 26.1 18.6 64 4.6 E 15 20 8 11 1013.2 1013.1 0.0
02/02:30pm 26.8 27.2 18.9 62 5.1 E 15 22 8 12 1013.2 1013.1 0.0
02/02:00pm 26.7 27.2 19.3 64 4.8 ESE 15 20 8 11 1013.4 1013.3 0.0
02/01:30pm 26.7 28.1 18.6 61 5.2 ENE 9 13 5 7 1014.0 1013.9 0.0
02/01:00pm 27.4 29.8 19.7 63 5.0 SE 6 11 3 6 1014.3 1014.2 0.0
02/12:30pm 26.8 28.3 18.9 62 5.1 ESE 9 13 5 7 1014.7 1014.6 0.0
02/12:00pm 26.3 28.3 19.2 65 4.6 S 7 13 4 7 1015.1 1015.0 0.0
02/11:30am 26.2 28.5 19.8 68 4.2 SE 7 13 4 7 1015.6 1015.5 0.0
02/11:00am 25.0 27.1 19.4 71 3.6 SSW 7 13 4 7 1016.4 1016.3 0.0
02/10:30am 24.8 28.4 19.8 74 3.2 CALM 0 7 0 4 1016.7 1016.6 0.0
02/10:00am 24.3 27.3 20.0 77 2.8 WSW 4 7 2 4 1017.2 1017.1 0.0
02/09:30am 23.0 25.6 20.0 83 1.9 SSW 6 7 3 4 1017.5 1017.4 0.0
02/09:00am 21.9 24.1 19.6 87 1.5 SSW 7 9 4 5 1017.2 1017.1 5.8
02/08:30am 21.1 22.9 19.6 91 1.0 SW 9 11 5 6 1017.2 1017.1 5.8
02/08:00am 20.5 22.7 19.5 94 0.6 S 7 9 4 5 1017.2 1017.1 5.8
02/07:30am 20.1 22.3 19.3 95 0.5 SSW 6 7 3 4 1017.3 1017.2 5.8
02/07:00am 19.7 21.8 19.0 96 0.4 S 6 7 3 4 1016.9 1016.8 5.8
02/06:30am 18.9 20.6 18.1 95 0.5 SSW 6 7 3 4 1016.8 1016.7 5.8
02/06:00am 18.9 20.6 18.1 95 0.5 SSW 6 7 3 4 1016.5 1016.4 5.8
02/05:30am 19.1 22.0 18.1 94 0.6 CALM 0 0 0 0 1015.9 1015.8 5.8
02/05:00am 19.2 21.0 18.4 95 0.5 WNW 6 7 3 4 1015.9 1015.8 5.8
02/04:30am 19.6 22.7 18.6 94 0.6 CALM 0 0 0 0 1015.5 1015.4 5.8
02/04:00am 20.0 21.5 18.8 93 0.8 S 9 11 5 6 1015.4 1015.3 5.8
02/03:30am 20.1 21.3 19.1 94 0.6 S 11 13 6 7 1015.4 1015.3 5.8
02/03:00am 20.0 20.5 19.2 95 0.5 SSE 15 19 8 10 1015.4 1015.3 5.8
02/02:30am 19.8 20.6 19.0 95 0.5 S 13 15 7 8 1015.3 1015.2 5.8
02/02:00am 19.8 21.7 19.0 95 0.5 SSW 7 9 4 5 1014.8 1014.7 5.8
02/01:30am 19.9 22.1 19.1 95 0.5 ENE 6 9 3 5 1014.5 1014.4 5.8
02/01:00am 19.7 21.6 18.9 95 0.5 NNE 7 9 4 5 1015.1 1015.0 5.8
02/12:30am 19.9 23.2 19.1 95 0.5 CALM 0 0 0 0 1016.0 1015.9 5.8
02/12:00am 19.7 21.8 18.9 95 0.5 WSW 6 7 3 4 1016.3 1016.2 5.8
 
Date/Time
EST
Temp
°C
App
Temp
°C
Dew
Point
Rel
Hum
%
Delta-T
°C
Wind Press
QNH
hPa
Press
MSL
hPa
Rain
since 9 am
mm
Dir
 
Spd
km/h
Gust
km/h
Spd
kts
Gust
kts
01/11:30pm 19.7 22.8 18.7 94 0.6 CALM 0 0 0 0 1016.4 1016.3 5.8
01/11:00pm 19.9 22.7 18.9 94 0.6 W 2 6 1 3 1016.6 1016.5 5.8
01/10:30pm 20.1 22.6 19.1 94 0.6 SE 4 9 2 5 1017.1 1017.0 5.8
01/10:05pm 20.0 23.3 19.2 95 0.5 CALM 0 0 0 0 1017.2 1017.1 5.8
01/10:00pm 19.9 23.2 19.1 95 0.5 CALM 0 0 0 0 1017.1 1017.0 5.8
01/09:46pm 19.1 21.8 17.8 92 0.8 CALM 0 0 0 0 1017.1 1017.0 5.8
01/09:30pm 19.8 22.2 18.8 94 0.6 S 4 9 2 5 1017.1 1017.0 5.8
01/09:00pm 20.1 23.3 18.9 93 0.8 CALM 0 0 0 0 1017.1 1017.0 5.8
01/08:30pm 20.4 21.7 19.4 94 0.6 ENE 11 15 6 8 1017.0 1016.9 5.8
01/08:00pm 19.9 23.0 18.7 93 0.7 CALM 0 0 0 0 1016.9 1016.8 5.8
01/07:30pm 20.4 22.0 19.2 93 0.8 SW 9 13 5 7 1017.0 1016.9 5.8
01/07:00pm 20.8 24.1 19.1 90 1.1 CALM 0 0 0 0 1016.3 1016.2 5.8
01/06:30pm 21.6 24.0 19.7 89 1.2 E 6 9 3 5 1016.2 1016.1 5.8
01/06:00pm 21.7 23.4 19.4 87 1.5 E 9 11 5 6 1015.7 1015.6 5.8
01/05:30pm 22.3 24.4 19.3 83 1.9 E 7 9 4 5 1015.6 1015.5 5.8
01/05:00pm 23.5 25.2 19.4 78 2.6 E 9 11 5 6 1015.6 1015.5 5.8
01/04:30pm 24.0 27.5 19.5 76 2.9 CALM 0 0 0 0 1015.6 1015.5 5.8
01/04:00pm 24.2 27.5 19.1 73 3.3 CALM 0 6 0 3 1015.4 1015.3 5.8
01/03:30pm 24.2 25.8 19.1 73 3.3 E 9 13 5 7 1015.3 1015.2 5.8
01/03:00pm 23.5 26.1 20.4 83 2.0 W 7 11 4 6 1015.6 1015.5 5.8
01/02:30pm 22.6 24.3 19.4 82 2.0 W 9 15 5 8 1015.6 1015.5 5.8
01/02:00pm 22.4 22.5 19.9 86 1.6 E 19 24 10 13 1015.1 1015.0 5.8
01/01:30pm 22.1 24.6 20.2 89 1.2 SE 7 11 4 6 1015.9 1015.8 5.8
01/01:00pm 22.2 25.0 20.5 90 1.1 SSW 6 7 3 4 1016.5 1016.4 5.4
01/12:30pm 22.0 24.3 20.6 92 0.9 SSW 9 11 5 6 1016.9 1016.8 5.2
01/12:00pm 21.6 23.3 20.2 92 0.9 S 11 15 6 8 1017.3 1017.2 4.8
01/11:58am 21.4 22.6 20.0 92 0.9 S 13 17 7 9 1017.4 1017.3 4.8
01/11:53am 21.4 22.6 20.0 92 0.9 SSW 13 17 7 9 1017.6 1017.5 4.8
01/11:47am 21.5 22.8 20.1 92 0.9 SSW 13 17 7 9 1017.7 1017.6 4.6
01/11:38am 21.8 23.6 20.4 92 0.9 S 11 15 6 8 1017.8 1017.7 4.0
01/11:36am 22.2 24.8 21.2 94 0.7 S 9 13 5 7 1017.8 1017.7 3.8
01/11:30am 22.0 24.4 20.8 93 0.8 SSE 9 13 5 7 1017.9 1017.8 3.4
01/11:00am 22.1 23.8 20.9 93 0.8 SE 13 17 7 9 1018.2 1018.1 2.4
01/10:59am 22.1 23.8 20.9 93 0.8 SE 13 17 7 9 1018.2 1018.1 2.4
01/10:30am 22.0 23.9 20.6 92 0.9 SSE 11 15 6 8 1018.8 1018.7 1.4
01/10:00am 21.9 23.1 20.7 93 0.8 S 15 17 8 9 1018.9 1018.8 1.0
01/09:48am 22.2 23.9 21.0 93 0.8 SSE 13 17 7 9 1019.3 1019.2 1.0
01/09:30am 21.8 23.7 20.6 93 0.8 SSE 11 13 6 7 1019.4 1019.3 0.4
01/09:00am 21.8 23.7 20.6 93 0.8 S 11 13 6 7 1019.6 1019.5 2.0
01/08:45am 21.8 23.3 20.6 93 0.8 S 13 15 7 8 1019.6 1019.5 1.6
01/08:30am 21.8 23.7 20.6 93 0.8 S 11 13 6 7 1019.5 1019.4 1.4
01/08:00am 21.8 24.3 20.3 91 1.0 SSE 7 9 4 5 1019.4 1019.3 0.8
01/07:53am 21.7 24.3 20.0 90 1.1 SE 6 9 3 5 1019.4 1019.3 0.8
01/07:30am 21.8 24.8 20.1 90 1.1 ESE 4 7 2 4 1019.2 1019.1 0.8
01/07:00am 21.7 24.1 20.0 90 1.1 ENE 7 11 4 6 1019.0 1018.9 0.4
01/06:30am 21.7 25.6 20.3 92 0.9 CALM 0 0 0 0 1018.8 1018.7 0.4
01/06:00am 21.6 25.4 20.2 92 0.9 CALM 0 0 0 0 1018.6 1018.5 0.4
01/05:30am 21.6 24.7 20.2 92 0.9 N 4 6 2 3 1018.1 1018.0 0.4
01/05:23am 21.6 24.3 20.2 92 0.9 N 6 7 3 4 1018.0 1017.9 0.4
01/05:00am 21.7 23.5 20.3 92 0.9 N 11 15 6 8 1018.1 1018.0 0.4
01/04:42am 21.8 25.7 20.4 92 0.9 CALM 0 0 0 0 1017.9 1017.8 0.4
01/04:35am 21.8 25.7 20.4 92 0.9 CALM 0 0 0 0 1017.9 1017.8 0.2
01/04:30am 21.8 25.7 20.3 91 1.0 CALM 0 0 0 0 1017.8 1017.7 0.2
01/04:00am 22.0 26.0 20.5 91 1.0 CALM 0 0 0 0 1017.8 1017.7 0.2
01/03:30am 21.9 25.7 20.2 90 1.1 CALM 0 0 0 0 1017.9 1017.8 0.2
01/03:13am 21.9 24.6 20.2 90 1.1 S 6 7 3 4 1017.7 1017.6 0.2
01/03:00am 21.9 24.3 20.0 89 1.2 S 7 9 4 5 1017.8 1017.7 0.2
01/02:30am 21.9 25.6 20.0 89 1.2 CALM 0 0 0 0 1017.8 1017.7 0.2
01/02:00am 21.9 25.6 20.0 89 1.2 CALM 0 0 0 0 1018.2 1018.1 0.2
01/01:30am 22.0 24.8 19.7 87 1.5 ESE 4 6 2 3 1018.6 1018.5 0.2
01/01:00am 22.2 24.6 20.1 88 1.3 ESE 7 9 4 5 1018.7 1018.6 0.2
01/12:30am 22.3 25.0 20.2 88 1.4 ENE 6 9 3 5 1019.0 1018.9 0.2
01/12:28am 22.3 25.0 20.2 88 1.4 ENE 6 9 3 5 1019.1 1019.0 0.2
01/12:07am 22.5 25.4 20.6 89 1.2 ENE 6 7 3 4 1019.2 1019.1 0.2
01/12:00am 22.5 25.1 20.4 88 1.4 ENE 7 9 4 5 1019.3 1019.2 0.2
 
Date/Time
EST
Temp
°C
App
Temp
°C
Dew
Point
Rel
Hum
%
Delta-T
°C
Wind Press
QNH
hPa
Press
MSL
hPa
Rain
since 9 am
mm
Dir
 
Spd
km/h
Gust
km/h
Spd
kts
Gust
kts
30/11:30pm 22.8 25.5 20.3 86 1.6 ENE 6 7 3 4 1019.5 1019.4 0.2
30/11:00pm 23.1 24.9 20.4 85 1.7 NE 11 15 6 8 1019.7 1019.6 0.2

Other Formats:

Comma delimited format used in spreadsheet applications
http://www.bom.gov.au/fwo/IDQ60801/IDQ60801.94575.axf

JavaScript Object Notation format (JSON) in row-major order
http://www.bom.gov.au/fwo/IDQ60801/IDQ60801.94575.json